createdAt,value
2016-03-03T00:00:54.456Z,4.68
2016-03-03T00:01:54.413Z,4.67
2016-03-03T00:02:54.383Z,4.63
2016-03-03T00:03:54.371Z,4.68
2016-03-03T00:04:54.342Z,4.55
2016-03-03T00:05:54.298Z,4.59
2016-03-03T00:06:54.285Z,4.66
2016-03-03T00:07:54.257Z,4.59
2016-03-03T00:08:54.227Z,4.62
2016-03-03T00:09:54.199Z,4.63
2016-03-03T00:10:54.155Z,4.63
2016-03-03T00:11:54.126Z,4.6
2016-03-03T00:12:54.098Z,4.59
2016-03-03T00:13:54.070Z,4.66
2016-03-03T00:14:54.057Z,4.63
2016-03-03T00:15:54.012Z,4.5
2016-03-03T00:16:53.984Z,4.58
2016-03-03T00:17:53.956Z,4.52
2016-03-03T00:18:53.926Z,4.5
2016-03-03T00:19:53.898Z,4.58
2016-03-03T00:20:53.870Z,4.5
2016-03-03T00:21:53.856Z,4.58
2016-03-03T00:22:53.812Z,4.53
2016-03-03T00:23:53.784Z,4.5
2016-03-03T00:24:53.755Z,4.52
2016-03-03T00:25:53.728Z,4.53
2016-03-03T00:26:53.698Z,4.56
2016-03-03T00:27:53.686Z,4.42
2016-03-03T00:28:53.641Z,4.41
2016-03-03T00:29:53.613Z,4.45
2016-03-03T00:30:53.584Z,4.42
2016-03-03T00:31:53.555Z,4.38
2016-03-03T00:32:53.527Z,4.4
2016-03-03T00:33:53.498Z,4.42
2016-03-03T00:34:53.470Z,4.34
2016-03-03T00:35:53.441Z,4.4
2016-03-03T00:36:53.413Z,4.34
2016-03-03T00:37:53.384Z,4.41
2016-03-03T00:38:53.355Z,4.44
2016-03-03T00:39:53.390Z,4.38
2016-03-03T00:40:53.298Z,4.38
2016-03-03T00:41:53.254Z,4.4
2016-03-03T00:42:53.273Z,4.37
2016-03-03T00:43:53.196Z,4.38
2016-03-03T00:44:53.169Z,4.37
2016-03-03T00:45:53.156Z,4.35
2016-03-03T00:46:53.111Z,4.42
2016-03-03T00:47:53.099Z,4.42
2016-03-03T00:48:53.054Z,4.41
2016-03-03T00:49:53.025Z,4.37
2016-03-03T00:50:53.012Z,4.37
2016-03-03T00:51:52.969Z,4.37
2016-03-03T00:52:52.940Z,4.38
2016-03-03T00:53:52.927Z,4.37
2016-03-03T00:54:52.883Z,4.35
2016-03-03T00:55:52.870Z,4.38
2016-03-03T00:56:52.842Z,4.38
2016-03-03T00:57:52.798Z,4.28
2016-03-03T00:58:52.769Z,4.38
2016-03-03T00:59:52.740Z,4.32
2016-03-03T01:00:52.711Z,4.32
2016-03-03T01:01:52.683Z,4.28
2016-03-03T01:02:52.655Z,4.31
2016-03-03T01:03:52.625Z,4.23
2016-03-03T01:04:52.598Z,4.32
2016-03-03T01:05:52.569Z,4.32
2016-03-03T01:06:52.525Z,4.31
2016-03-03T01:07:52.511Z,4.31
2016-03-03T01:08:52.467Z,4.31
2016-03-03T01:09:52.471Z,4.32
2016-03-03T01:10:52.410Z,4.28
2016-03-03T01:11:52.382Z,4.32
2016-03-03T01:12:52.369Z,4.26
2016-03-03T01:13:52.325Z,4.34
2016-03-03T01:14:52.296Z,4.3
2016-03-03T01:15:52.268Z,4.32
2016-03-03T01:16:52.255Z,4.28
2016-03-03T01:17:52.226Z,4.23
2016-03-03T01:18:52.198Z,4.3
2016-03-03T01:19:52.154Z,4.32
2016-03-03T01:20:52.125Z,4.34
2016-03-03T01:21:52.096Z,4.23
2016-03-03T01:22:52.068Z,4.28
2016-03-03T01:23:52.039Z,4.3
2016-03-03T01:24:52.011Z,4.24
2016-03-03T01:25:51.981Z,4.26
2016-03-03T01:26:51.953Z,4.23
2016-03-03T01:27:51.190Z,4.26
2016-03-03T01:28:51.897Z,4.28
2016-03-03T01:29:51.868Z,4.16
2016-03-03T01:30:51.823Z,4.17
2016-03-03T01:31:51.795Z,4.23
2016-03-03T01:32:51.782Z,4.2
2016-03-03T01:33:51.738Z,4.23
2016-03-03T01:34:51.724Z,4.2
2016-03-03T01:35:51.680Z,4.23
2016-03-03T01:36:51.652Z,4.26
2016-03-03T01:37:51.639Z,4.23
2016-03-03T01:38:51.626Z,4.23
2016-03-03T01:39:51.566Z,4.22
2016-03-03T01:40:51.538Z,4.23
2016-03-03T01:41:51.509Z,4.14
2016-03-03T01:42:51.480Z,4.13
2016-03-03T01:43:51.483Z,4.23
2016-03-03T01:44:51.424Z,4.06
2016-03-03T01:45:51.395Z,4.12
2016-03-03T01:46:51.367Z,4.14
2016-03-03T01:47:51.338Z,4.1
2016-03-03T01:48:51.310Z,4.06
2016-03-03T01:49:51.281Z,4.19
2016-03-03T01:50:51.252Z,4.16
2016-03-03T01:51:51.224Z,4.17
2016-03-03T01:52:51.196Z,4.17
2016-03-03T01:53:51.164Z,4.14
2016-03-03T01:54:51.136Z,4.08
2016-03-03T01:55:51.123Z,4.24
2016-03-03T01:56:51.078Z,4.14
2016-03-03T01:57:51.049Z,4.26
2016-03-03T01:58:51.036Z,4.1
2016-03-03T01:59:50.977Z,4.2
2016-03-03T02:00:50.964Z,4.16
2016-03-03T02:01:50.920Z,4.22
2016-03-03T02:02:50.891Z,4.08
2016-03-03T02:03:50.862Z,4.22
2016-03-03T02:04:50.833Z,4.26
2016-03-03T02:05:50.821Z,4.23
2016-03-03T02:06:50.777Z,4.26
2016-03-03T02:07:50.749Z,4.26
2016-03-03T02:08:50.720Z,4.26
2016-03-03T02:09:50.691Z,4.22
2016-03-03T02:10:50.663Z,4.3
2016-03-03T02:11:50.635Z,4.3
2016-03-03T02:12:50.606Z,4.3
2016-03-03T02:13:50.577Z,4.26
2016-03-03T02:14:50.548Z,4.3
2016-03-03T02:15:50.520Z,4.28
2016-03-03T02:16:50.491Z,4.28
2016-03-03T02:17:50.463Z,4.28
2016-03-03T02:18:50.435Z,4.34
2016-03-03T02:19:50.406Z,4.31
2016-03-03T02:20:50.377Z,4.28
2016-03-03T02:21:50.348Z,4.3
2016-03-03T02:22:50.320Z,4.28
2016-03-03T02:23:50.275Z,4.31
2016-03-03T02:24:50.248Z,4.26
2016-03-03T02:25:50.219Z,4.34
2016-03-03T02:26:50.190Z,4.28
2016-03-03T02:27:50.161Z,4.31
2016-03-03T02:28:50.133Z,4.38
2016-03-03T02:29:50.104Z,4.38
2016-03-03T02:30:50.075Z,4.37
2016-03-03T02:31:50.048Z,4.41
2016-03-03T02:32:50.019Z,4.4
2016-03-03T02:33:50.006Z,4.37
2016-03-03T02:34:49.961Z,4.37
2016-03-03T02:35:49.933Z,4.44
2016-03-03T02:36:49.904Z,4.41
2016-03-03T02:37:49.876Z,4.45
2016-03-03T02:38:49.847Z,4.37
2016-03-03T02:39:49.819Z,4.49
2016-03-03T02:40:49.790Z,4.41
2016-03-03T02:41:49.762Z,4.42
2016-03-03T02:42:49.732Z,4.44
2016-03-03T02:43:49.704Z,4.41
2016-03-03T02:44:49.676Z,4.45
2016-03-03T02:45:49.648Z,4.41
2016-03-03T02:46:49.619Z,4.5
2016-03-03T02:47:49.590Z,4.48
2016-03-03T02:48:49.562Z,4.42
2016-03-03T02:49:49.527Z,4.38
2016-03-03T02:50:49.482Z,4.41
2016-03-03T02:51:49.438Z,4.42
2016-03-03T02:52:49.378Z,4.41
2016-03-03T02:53:49.350Z,4.41
2016-03-03T02:54:49.311Z,4.52
2016-03-03T02:55:49.261Z,4.5
2016-03-03T02:56:49.227Z,4.5
2016-03-03T02:57:49.193Z,4.5
2016-03-03T02:58:49.175Z,4.45
2016-03-03T02:59:49.127Z,4.5
2016-03-03T03:00:49.097Z,4.49
2016-03-03T03:01:49.066Z,4.55
2016-03-03T03:02:49.036Z,4.58
2016-03-03T03:03:49.005Z,4.59
2016-03-03T03:04:48.975Z,4.56
2016-03-03T03:05:48.946Z,4.49
2016-03-03T03:06:48.917Z,4.49
2016-03-03T03:07:48.887Z,4.55
2016-03-03T03:08:48.858Z,4.52
2016-03-03T03:09:48.830Z,4.5
2016-03-03T03:10:48.801Z,4.52
2016-03-03T03:11:48.771Z,4.48
2016-03-03T03:12:48.743Z,4.55
2016-03-03T03:13:48.714Z,4.55
2016-03-03T03:14:48.686Z,4.55
2016-03-03T03:15:48.656Z,4.62
2016-03-03T03:16:48.612Z,4.58
2016-03-03T03:17:48.599Z,4.62
2016-03-03T03:18:48.571Z,4.62
2016-03-03T03:19:48.526Z,4.62
2016-03-03T03:20:48.498Z,4.52
2016-03-03T03:21:48.485Z,4.58
2016-03-03T03:22:48.457Z,4.62
2016-03-03T03:23:48.428Z,4.55
2016-03-03T03:24:48.385Z,4.66
2016-03-03T03:25:48.355Z,4.62
2016-03-03T03:26:48.327Z,4.62
2016-03-03T03:27:48.314Z,4.6
2016-03-03T03:28:48.286Z,4.55
2016-03-03T03:29:48.241Z,4.56
2016-03-03T03:30:48.212Z,4.63
2016-03-03T03:31:48.184Z,4.56
2016-03-03T03:32:48.156Z,4.67
2016-03-03T03:33:48.143Z,4.56
2016-03-03T03:34:48.114Z,4.58
2016-03-03T03:35:48.071Z,4.59
2016-03-03T03:36:48.042Z,4.58
2016-03-03T03:37:48.013Z,4.66
2016-03-03T03:38:47.984Z,4.59
2016-03-03T03:39:47.956Z,4.58
2016-03-03T03:40:47.927Z,4.59
2016-03-03T03:41:47.898Z,4.55
2016-03-03T03:42:47.870Z,4.58
2016-03-03T03:43:47.842Z,4.6
2016-03-03T03:44:47.814Z,4.66
2016-03-03T03:45:47.784Z,4.59
2016-03-03T03:46:47.756Z,4.53
2016-03-03T03:47:47.712Z,4.53
2016-03-03T03:48:47.700Z,4.67
2016-03-03T03:49:47.670Z,4.58
2016-03-03T03:50:47.642Z,4.58
2016-03-03T03:51:47.613Z,4.53
2016-03-03T03:52:47.585Z,4.63
2016-03-03T03:53:47.541Z,4.6
2016-03-03T03:54:47.511Z,4.58
2016-03-03T03:55:47.499Z,4.67
2016-03-03T03:56:47.452Z,4.59
2016-03-03T03:57:47.423Z,4.55
2016-03-03T03:58:47.394Z,4.67
2016-03-03T03:59:47.382Z,4.63
2016-03-03T04:00:47.338Z,4.63
2016-03-03T04:01:47.310Z,4.62
2016-03-03T04:02:47.280Z,4.58
2016-03-03T04:03:47.252Z,4.58
2016-03-03T04:04:47.240Z,4.55
2016-03-03T04:05:47.210Z,4.53
2016-03-03T04:06:47.166Z,4.56
2016-03-03T04:07:47.153Z,4.68
2016-03-03T04:08:47.109Z,4.58
2016-03-03T04:09:47.096Z,4.58
2016-03-03T04:10:47.051Z,4.71
2016-03-03T04:11:47.024Z,4.53
2016-03-03T04:12:46.995Z,4.7
2016-03-03T04:13:46.967Z,4.66
2016-03-03T04:14:46.938Z,4.7
2016-03-03T04:15:46.910Z,4.63
2016-03-03T04:16:46.881Z,4.67
2016-03-03T04:17:46.853Z,4.68
2016-03-03T04:18:46.840Z,4.7
2016-03-03T04:19:46.796Z,4.67
2016-03-03T04:20:46.752Z,4.68
2016-03-03T04:21:46.728Z,4.62
2016-03-03T04:22:46.700Z,4.7
2016-03-03T04:23:46.671Z,4.62
2016-03-03T04:24:46.642Z,4.7
2016-03-03T04:25:46.614Z,4.6
2016-03-03T04:26:46.600Z,4.68
2016-03-03T04:27:46.556Z,4.7
2016-03-03T04:28:46.528Z,4.74
2016-03-03T04:29:46.499Z,4.73
2016-03-03T04:30:46.472Z,4.74
2016-03-03T04:31:46.458Z,4.68
2016-03-03T04:32:46.414Z,4.67
2016-03-03T04:33:46.402Z,4.71
2016-03-03T04:34:46.357Z,4.74
2016-03-03T04:35:46.344Z,4.73
2016-03-03T04:36:46.299Z,4.84
2016-03-03T04:37:46.287Z,4.78
2016-03-03T04:38:46.243Z,4.7
2016-03-03T04:39:46.213Z,4.73
2016-03-03T04:40:46.185Z,4.8
2016-03-03T04:41:46.157Z,4.87
2016-03-03T04:42:46.129Z,4.86
2016-03-03T04:43:46.100Z,4.77
2016-03-03T04:44:46.071Z,4.77
2016-03-03T04:45:46.043Z,4.87
2016-03-03T04:46:45.998Z,4.84
2016-03-03T04:47:45.985Z,4.82
2016-03-03T04:48:45.957Z,4.8
2016-03-03T04:49:45.929Z,4.82
2016-03-03T04:50:45.900Z,4.93
2016-03-03T04:51:45.871Z,4.87
2016-03-03T04:52:45.858Z,4.89
2016-03-03T04:53:45.798Z,4.9
2016-03-03T04:54:45.786Z,4.77
2016-03-03T04:55:45.756Z,4.93
2016-03-03T04:56:45.728Z,4.86
2016-03-03T04:57:45.684Z,4.9
2016-03-03T04:58:45.672Z,4.89
2016-03-03T04:59:45.628Z,4.86
2016-03-03T05:00:45.614Z,4.89
2016-03-03T05:01:45.414Z,4.78
2016-03-03T05:02:45.558Z,4.9
2016-03-03T05:03:45.513Z,4.82
2016-03-03T05:04:45.500Z,4.84
2016-03-03T05:05:45.455Z,4.77
2016-03-03T05:06:45.443Z,4.84
2016-03-03T05:07:45.399Z,4.77
2016-03-03T05:08:45.386Z,4.77
2016-03-03T05:09:45.341Z,4.75
2016-03-03T05:10:45.329Z,4.89
2016-03-03T05:11:45.284Z,4.77
2016-03-03T05:12:45.256Z,4.82
2016-03-03T05:13:45.243Z,4.77
2016-03-03T05:14:45.198Z,4.75
2016-03-03T05:15:45.202Z,4.78
2016-03-03T05:16:45.142Z,4.78
2016-03-03T05:17:45.112Z,4.77
2016-03-03T05:18:45.100Z,4.78
2016-03-03T05:19:45.056Z,4.82
2016-03-03T05:20:45.028Z,4.77
2016-03-03T05:21:44.999Z,4.78
2016-03-03T05:22:44.970Z,4.75
2016-03-03T05:23:44.942Z,4.84
2016-03-03T05:24:44.914Z,4.78
2016-03-03T05:25:44.885Z,4.78
2016-03-03T05:26:44.856Z,4.86
2016-03-03T05:27:44.828Z,4.8
2016-03-03T05:28:44.800Z,4.8
2016-03-03T05:29:44.770Z,4.87
2016-03-03T05:30:44.758Z,4.89
2016-03-03T05:31:44.713Z,4.84
2016-03-03T05:32:44.685Z,4.89
2016-03-03T05:33:44.656Z,4.92
2016-03-03T05:34:44.627Z,4.87
2016-03-03T05:35:44.599Z,4.9
2016-03-03T05:36:44.571Z,4.9
2016-03-03T05:37:44.385Z,4.84
2016-03-03T05:38:44.513Z,4.84
2016-03-03T05:39:44.500Z,4.82
2016-03-03T05:40:44.457Z,4.93
2016-03-03T05:41:44.428Z,4.84
2016-03-03T05:42:44.399Z,4.94
2016-03-03T05:43:44.371Z,4.97
2016-03-03T05:44:44.342Z,4.94
2016-03-03T05:45:44.313Z,4.87
2016-03-03T05:46:44.285Z,4.97
2016-03-03T05:47:44.256Z,4.94
2016-03-03T05:48:44.212Z,5
2016-03-03T05:49:44.199Z,5.02
2016-03-03T05:50:44.171Z,4.97
2016-03-03T05:51:44.143Z,5
2016-03-03T05:52:44.114Z,5
2016-03-03T05:53:44.085Z,5.1
2016-03-03T05:54:44.057Z,4.93
2016-03-03T05:55:44.028Z,4.96
2016-03-03T05:56:44.000Z,4.97
2016-03-03T05:57:43.970Z,4.97
2016-03-03T05:58:43.942Z,4.96
2016-03-03T05:59:43.914Z,4.96
2016-03-03T06:00:43.886Z,4.92
2016-03-03T06:01:43.856Z,4.99
2016-03-03T06:02:43.828Z,4.96
2016-03-03T06:03:43.814Z,4.96
2016-03-03T06:04:43.771Z,4.97
2016-03-03T06:05:43.742Z,4.96
2016-03-03T06:06:43.713Z,4.92
2016-03-03T06:07:43.670Z,4.94
2016-03-03T06:08:43.641Z,4.96
2016-03-03T06:09:43.627Z,4.93
2016-03-03T06:10:43.599Z,4.99
2016-03-03T06:11:43.555Z,4.96
2016-03-03T06:12:43.542Z,4.93
2016-03-03T06:13:43.498Z,4.93
2016-03-03T06:14:43.485Z,4.96
2016-03-03T06:15:43.441Z,4.96
2016-03-03T06:16:43.428Z,4.93
2016-03-03T06:17:43.400Z,4.89
2016-03-03T06:18:43.449Z,4.92
2016-03-03T06:19:43.562Z,4.94
2016-03-03T06:20:43.424Z,4.93
2016-03-03T06:21:43.286Z,4.96
2016-03-03T06:22:43.257Z,4.93
2016-03-03T06:23:43.213Z,4.93
2016-03-03T06:24:43.200Z,4.94
2016-03-03T06:25:43.171Z,5
2016-03-03T06:26:43.143Z,4.89
2016-03-03T06:27:43.098Z,5
2016-03-03T06:28:43.086Z,4.97
2016-03-03T06:29:43.042Z,4.97
2016-03-03T06:30:43.028Z,4.93
2016-03-03T06:31:42.984Z,4.93
2016-03-03T06:32:42.972Z,4.93
2016-03-03T06:33:42.927Z,4.92
2016-03-03T06:34:42.914Z,4.87
2016-03-03T06:35:42.886Z,4.9
2016-03-03T06:36:42.841Z,4.96
2016-03-03T06:37:42.829Z,4.94
2016-03-03T06:38:42.800Z,4.93
2016-03-03T06:39:42.772Z,4.87
2016-03-03T06:40:42.728Z,4.87
2016-03-03T06:41:42.715Z,4.92
2016-03-03T06:42:42.686Z,4.94
2016-03-03T06:43:42.642Z,4.93
2016-03-03T06:44:42.629Z,4.9
2016-03-03T06:45:42.601Z,4.92
2016-03-03T06:46:42.556Z,4.92
2016-03-03T06:47:42.544Z,4.93
2016-03-03T06:48:42.500Z,4.96
2016-03-03T06:49:42.490Z,4.93
2016-03-03T06:50:42.445Z,4.93
2016-03-03T06:51:42.418Z,4.92
2016-03-03T06:52:42.389Z,4.94
2016-03-03T06:53:42.361Z,4.97
2016-03-03T06:54:42.332Z,4.99
2016-03-03T06:55:42.303Z,5.07
2016-03-03T06:56:42.275Z,5.05
2016-03-03T06:57:42.261Z,5.08
2016-03-03T06:58:42.217Z,5.08
2016-03-03T06:59:42.189Z,5.08
2016-03-03T07:00:42.175Z,5.04
2016-03-03T07:01:42.133Z,5.11
2016-03-03T07:02:42.119Z,5.17
2016-03-03T07:03:42.091Z,5.11
2016-03-03T07:04:42.062Z,5.11
2016-03-03T07:05:42.049Z,5.1
2016-03-03T07:06:42.005Z,5.14
2016-03-03T07:07:41.960Z,5.15
2016-03-03T07:08:41.948Z,5.23
2016-03-03T07:09:41.904Z,5.11
2016-03-03T07:10:41.890Z,5.2
2016-03-03T07:11:41.863Z,5.23
2016-03-03T07:12:41.833Z,5.25
2016-03-03T07:13:41.805Z,5.29
2016-03-03T07:14:41.777Z,5.28
2016-03-03T07:15:41.779Z,5.23
2016-03-03T07:16:41.718Z,5.33
2016-03-03T07:17:41.690Z,5.28
2016-03-03T07:18:41.662Z,5.32
2016-03-03T07:19:41.634Z,5.32
2016-03-03T07:20:41.604Z,5.29
2016-03-03T07:21:41.592Z,5.32
2016-03-03T07:22:41.548Z,5.29
2016-03-03T07:23:41.534Z,5.46
2016-03-03T07:24:41.491Z,5.38
2016-03-03T07:25:41.509Z,5.29
2016-03-03T07:26:41.433Z,5.33
2016-03-03T07:27:41.405Z,5.38
2016-03-03T07:28:41.376Z,5.28
2016-03-03T07:29:41.348Z,5.28
2016-03-03T07:30:41.319Z,5.3
2016-03-03T07:31:41.306Z,5.29
2016-03-03T07:32:41.278Z,5.33
2016-03-03T07:33:41.250Z,5.28
2016-03-03T07:34:41.222Z,5.29
2016-03-03T07:35:41.192Z,5.29
2016-03-03T07:36:41.163Z,5.28
2016-03-03T07:37:41.135Z,5.26
2016-03-03T07:38:41.107Z,5.3
2016-03-03T07:39:41.078Z,5.35
2016-03-03T07:40:41.049Z,5.26
2016-03-03T07:41:41.021Z,5.3
2016-03-03T07:42:40.993Z,5.29
2016-03-03T07:43:40.963Z,5.23
2016-03-03T07:44:40.952Z,5.26
2016-03-03T07:45:40.907Z,5.23
2016-03-03T07:46:40.878Z,5.32
2016-03-03T07:47:40.849Z,5.33
2016-03-03T07:48:40.821Z,5.29
2016-03-03T07:49:40.792Z,5.3
2016-03-03T07:50:40.764Z,5.15
2016-03-03T07:51:40.735Z,5.25
2016-03-03T07:52:40.706Z,5.26
2016-03-03T07:53:40.678Z,5.2
2016-03-03T07:54:40.665Z,5.26
2016-03-03T07:55:40.621Z,5.23
2016-03-03T07:56:40.592Z,5.28
2016-03-03T07:57:40.564Z,5.25
2016-03-03T07:58:40.551Z,5.32
2016-03-03T07:59:40.506Z,5.28
2016-03-03T08:00:40.494Z,5.28
2016-03-03T08:01:40.449Z,5.3
2016-03-03T08:02:40.436Z,5.26
2016-03-03T08:03:40.409Z,5.29
2016-03-03T08:04:40.380Z,5.3
2016-03-03T08:05:40.367Z,5.28
2016-03-03T08:06:40.307Z,5.29
2016-03-03T08:07:40.294Z,5.38
2016-03-03T08:08:40.266Z,5.39
2016-03-03T08:09:40.236Z,5.41
2016-03-03T08:10:40.208Z,5.43
2016-03-03T08:11:40.180Z,5.48
2016-03-03T08:12:40.135Z,5.36
2016-03-03T08:13:40.122Z,5.43
2016-03-03T08:14:40.094Z,5.44
2016-03-03T08:15:40.065Z,5.41
2016-03-03T08:16:40.037Z,5.36
2016-03-03T08:17:40.024Z,5.46
2016-03-03T08:18:39.979Z,5.43
2016-03-03T08:19:39.951Z,5.51
2016-03-03T08:20:39.923Z,5.36
2016-03-03T08:21:39.894Z,5.41
2016-03-03T08:22:39.865Z,5.38
2016-03-03T08:23:39.837Z,5.47
2016-03-03T08:24:39.824Z,5.48
2016-03-03T08:25:39.779Z,5.51
2016-03-03T08:26:39.767Z,5.47
2016-03-03T08:27:39.801Z,5.41
2016-03-03T08:28:39.709Z,5.54
2016-03-03T08:29:39.697Z,5.39
2016-03-03T08:30:39.653Z,5.5
2016-03-03T08:31:39.608Z,5.54
2016-03-03T08:32:39.737Z,5.54
2016-03-03T08:33:39.567Z,5.51
2016-03-03T08:34:39.539Z,5.46
2016-03-03T08:35:39.510Z,5.48
2016-03-03T08:36:39.466Z,5.56
2016-03-03T08:37:39.453Z,5.66
2016-03-03T08:38:39.424Z,5.53
2016-03-03T08:39:39.396Z,5.64
2016-03-03T08:40:39.383Z,5.62
2016-03-03T08:41:39.338Z,5.69
2016-03-03T08:42:39.310Z,5.73
2016-03-03T08:43:39.282Z,5.76
2016-03-03T08:44:39.268Z,5.73
2016-03-03T08:45:39.255Z,5.72
2016-03-03T08:46:39.196Z,5.76
2016-03-03T08:47:39.182Z,5.83
2016-03-03T08:48:39.154Z,5.87
2016-03-03T08:49:39.110Z,5.94
2016-03-03T08:50:39.112Z,5.91
2016-03-03T08:51:39.068Z,5.98
2016-03-03T08:52:39.040Z,5.93
2016-03-03T08:53:39.012Z,5.99
2016-03-03T08:54:38.982Z,6.01
2016-03-03T08:55:38.970Z,6.04
2016-03-03T08:56:38.942Z,6.09
2016-03-03T08:57:38.912Z,6.14
2016-03-03T08:58:38.884Z,6.2
2016-03-03T08:59:38.856Z,6.28
2016-03-03T09:00:38.842Z,6.26
2016-03-03T09:01:38.799Z,6.28
2016-03-03T09:02:38.817Z,6.45
2016-03-03T09:03:38.741Z,6.48
2016-03-03T09:04:38.728Z,6.46
2016-03-03T09:05:38.716Z,6.48
2016-03-03T09:06:38.671Z,6.51
2016-03-03T09:07:38.642Z,6.63
2016-03-03T09:08:38.630Z,6.66
2016-03-03T09:09:38.586Z,6.6
2016-03-03T09:10:38.573Z,6.74
2016-03-03T09:11:38.575Z,6.74
2016-03-03T09:12:38.515Z,6.75
2016-03-03T09:13:38.503Z,6.79
2016-03-03T09:14:38.474Z,6.77
2016-03-03T09:15:38.477Z,6.77
2016-03-03T09:16:38.416Z,6.81
2016-03-03T09:17:38.404Z,6.79
2016-03-03T09:18:38.360Z,6.95
2016-03-03T09:19:38.347Z,6.97
2016-03-03T09:20:38.318Z,6.95
2016-03-03T09:21:38.290Z,7.15
2016-03-03T09:22:38.324Z,7.2
2016-03-03T09:23:38.248Z,7.2
2016-03-03T09:24:38.220Z,7.35
2016-03-03T09:25:38.190Z,7.36
2016-03-03T09:26:38.162Z,7.4
2016-03-03T09:27:38.150Z,7.35
2016-03-03T09:28:38.121Z,7.48
2016-03-03T09:29:38.092Z,7.48
2016-03-03T09:30:38.079Z,7.53
2016-03-03T09:31:38.051Z,7.48
2016-03-03T09:32:38.022Z,7.47
2016-03-03T09:33:38.041Z,7.47
2016-03-03T09:34:37.980Z,7.45
2016-03-03T09:35:37.953Z,7.43
2016-03-03T09:36:37.986Z,7.66
2016-03-03T09:37:37.911Z,7.66
2016-03-03T09:38:37.883Z,7.72
2016-03-03T09:39:37.869Z,7.8
2016-03-03T09:40:37.841Z,7.94
2016-03-03T09:41:37.797Z,7.95
2016-03-03T09:42:37.783Z,7.95
2016-03-03T09:43:37.755Z,7.98
2016-03-03T09:44:37.742Z,7.94
2016-03-03T09:45:37.713Z,8.01
2016-03-03T09:46:37.702Z,7.97
2016-03-03T09:47:37.657Z,7.93
2016-03-03T09:48:37.644Z,7.93
2016-03-03T09:49:37.615Z,7.97
2016-03-03T09:50:37.649Z,7.94
2016-03-03T09:51:37.573Z,8
2016-03-03T09:52:37.545Z,8.01
2016-03-03T09:53:37.516Z,7.94
2016-03-03T09:54:37.504Z,7.93
2016-03-03T09:55:37.475Z,8.01
2016-03-03T09:56:37.446Z,8.05
2016-03-03T09:57:37.434Z,8.05
2016-03-03T09:58:37.405Z,7.98
2016-03-03T09:59:37.392Z,8.01
2016-03-03T10:00:37.364Z,8.13
2016-03-03T10:01:37.335Z,8.1
2016-03-03T10:02:37.306Z,8.16
2016-03-03T10:03:37.293Z,8.33
2016-03-03T10:04:37.250Z,8.24
2016-03-03T10:05:37.095Z,8.24
2016-03-03T10:06:37.208Z,8.33
2016-03-03T10:07:37.038Z,8.34
2016-03-03T10:08:37.181Z,8.45
2016-03-03T10:09:37.138Z,8.56
2016-03-03T10:10:37.124Z,8.55
2016-03-03T10:11:37.128Z,8.63
2016-03-03T10:12:37.067Z,8.56
2016-03-03T10:13:37.070Z,8.58
2016-03-03T10:14:37.041Z,8.69
2016-03-03T10:15:37.013Z,8.66
2016-03-03T10:16:36.984Z,8.69
2016-03-03T10:17:36.971Z,8.74
2016-03-03T10:18:36.943Z,8.67
2016-03-03T10:19:36.914Z,8.7
2016-03-03T10:20:36.885Z,8.67
2016-03-03T10:21:36.873Z,8.81
2016-03-03T10:22:36.844Z,8.78
2016-03-03T10:23:36.878Z,8.81
2016-03-03T10:24:36.803Z,8.74
2016-03-03T10:25:36.774Z,8.81
2016-03-03T10:26:36.745Z,8.7
2016-03-03T10:27:36.732Z,8.7
2016-03-03T10:28:36.704Z,8.74
2016-03-03T10:29:36.691Z,8.82
2016-03-03T10:30:36.662Z,8.84
2016-03-03T10:31:36.634Z,8.88
2016-03-03T10:32:36.620Z,9.02
2016-03-03T10:33:36.592Z,8.88
2016-03-03T10:34:36.580Z,8.92
2016-03-03T10:35:36.550Z,8.95
2016-03-03T10:36:36.522Z,9.06
2016-03-03T10:37:36.509Z,9.04
2016-03-03T10:38:36.481Z,9.04
2016-03-03T10:39:36.468Z,9.08
2016-03-03T10:40:36.424Z,8.95
2016-03-03T10:41:36.411Z,8.88
2016-03-03T10:42:36.413Z,8.88
2016-03-03T10:43:36.604Z,8.99
2016-03-03T10:44:36.357Z,9
2016-03-03T10:45:36.327Z,9.02
2016-03-03T10:46:36.315Z,9.03
2016-03-03T10:47:36.271Z,9.04
2016-03-03T10:48:36.273Z,9.04
2016-03-03T10:49:36.229Z,9.06
2016-03-03T10:50:36.216Z,8.99
2016-03-03T10:51:36.188Z,8.84
2016-03-03T10:52:36.159Z,8.73
2016-03-03T10:53:36.146Z,8.67
2016-03-03T10:54:36.118Z,8.7
2016-03-03T10:55:36.104Z,8.73
2016-03-03T10:56:36.076Z,8.69
2016-03-03T10:57:36.063Z,8.61
2016-03-03T10:58:36.034Z,8.66
2016-03-03T10:59:36.006Z,8.81
2016-03-03T11:00:35.978Z,8.82
2016-03-03T11:01:36.027Z,8.71
2016-03-03T11:02:36.826Z,8.76
2016-03-03T11:03:35.908Z,8.79
2016-03-03T11:04:35.894Z,8.85
2016-03-03T11:05:35.881Z,8.78
2016-03-03T11:06:35.853Z,8.81
2016-03-03T11:07:35.825Z,8.81
2016-03-03T11:08:35.796Z,8.78
2016-03-03T11:09:35.783Z,8.89
2016-03-03T11:10:35.755Z,8.84
2016-03-03T11:11:35.725Z,8.97
2016-03-03T11:12:35.793Z,9.02
2016-03-03T11:13:35.771Z,8.88
2016-03-03T11:14:35.663Z,8.88
2016-03-03T11:15:36.994Z,8.89
2016-03-03T11:16:35.619Z,8.92
2016-03-03T11:17:35.590Z,8.95
2016-03-03T11:18:35.577Z,8.91
2016-03-03T11:19:35.549Z,8.99
2016-03-03T11:20:35.537Z,9
2016-03-03T11:21:35.507Z,8.91
2016-03-03T11:22:35.480Z,8.94
2016-03-03T11:23:35.451Z,8.94
2016-03-03T11:24:35.453Z,8.91
2016-03-03T11:25:35.426Z,8.82
2016-03-03T11:26:35.584Z,8.81
2016-03-03T11:27:35.367Z,8.73
2016-03-03T11:28:35.355Z,8.76
2016-03-03T11:29:35.326Z,8.81
2016-03-03T11:30:35.314Z,8.76
2016-03-03T11:31:35.284Z,8.78
2016-03-03T11:32:35.272Z,8.71
2016-03-03T11:33:35.243Z,8.69
2016-03-03T11:34:35.214Z,8.7
2016-03-03T11:35:35.202Z,8.76
2016-03-03T11:36:35.173Z,8.71
2016-03-03T11:37:35.145Z,8.67
2016-03-03T11:38:35.116Z,8.74
2016-03-03T11:39:35.103Z,8.82
2016-03-03T11:40:35.091Z,8.99
2016-03-03T11:41:35.077Z,8.88
2016-03-03T11:42:35.033Z,9.02
2016-03-03T11:43:35.020Z,9.04
2016-03-03T11:44:34.991Z,9.06
2016-03-03T11:45:35.025Z,9.19
2016-03-03T11:46:34.935Z,9.1
2016-03-03T11:47:34.984Z,9.02
2016-03-03T11:48:34.908Z,9.1
2016-03-03T11:49:34.880Z,9.21
2016-03-03T11:50:34.882Z,9.36
2016-03-03T11:51:34.838Z,9.43
2016-03-03T11:52:34.826Z,9.51
2016-03-03T11:53:34.797Z,9.65
2016-03-03T11:54:34.768Z,9.72
2016-03-03T11:55:34.769Z,9.77
2016-03-03T11:56:34.732Z,9.89
2016-03-03T11:57:34.772Z,9.86
2016-03-03T11:58:34.657Z,10.09
2016-03-03T11:59:34.623Z,10.07
2016-03-03T12:00:34.619Z,9.99
2016-03-03T12:01:34.587Z,9.94
2016-03-03T12:02:34.555Z,9.94
2016-03-03T12:03:34.587Z,9.86
2016-03-03T12:04:34.508Z,9.87
2016-03-03T12:05:34.492Z,10.07
2016-03-03T12:06:34.478Z,10.04
2016-03-03T12:07:34.433Z,10.19
2016-03-03T12:08:34.419Z,10.19
2016-03-03T12:09:34.389Z,10.26
2016-03-03T12:10:34.374Z,10.34
2016-03-03T12:11:34.361Z,10.26
2016-03-03T12:12:34.332Z,10.33
2016-03-03T12:13:34.320Z,10.37
2016-03-03T12:14:34.290Z,10.41
2016-03-03T12:15:34.262Z,10.42
2016-03-03T12:16:34.389Z,10.42
2016-03-03T12:17:34.235Z,10.54
2016-03-03T12:18:34.222Z,10.57
2016-03-03T12:19:34.176Z,10.56
2016-03-03T12:20:34.164Z,10.72
2016-03-03T12:21:34.135Z,10.74
2016-03-03T12:22:34.122Z,10.67
2016-03-03T12:23:34.094Z,10.71
2016-03-03T12:24:34.096Z,10.71
2016-03-03T12:25:34.287Z,10.67
2016-03-03T12:26:34.055Z,10.61
2016-03-03T12:27:34.089Z,10.72
2016-03-03T12:28:33.997Z,10.75
2016-03-03T12:29:33.985Z,10.74
2016-03-03T12:30:33.956Z,10.75
2016-03-03T12:31:33.944Z,10.74
2016-03-03T12:32:33.914Z,10.76
2016-03-03T12:33:33.886Z,10.63
2016-03-03T12:34:33.874Z,10.68
2016-03-03T12:35:33.845Z,10.6
2016-03-03T12:36:33.847Z,10.57
2016-03-03T12:37:33.819Z,10.59
2016-03-03T12:38:33.805Z,10.67
2016-03-03T12:39:33.777Z,10.76
2016-03-03T12:40:33.765Z,10.78
2016-03-03T12:41:34.001Z,10.68
2016-03-03T12:42:33.724Z,10.69
2016-03-03T12:43:33.694Z,10.68
2016-03-03T12:44:33.681Z,10.49
2016-03-03T12:45:33.654Z,10.44
2016-03-03T12:46:33.640Z,10.4
2016-03-03T12:47:33.611Z,10.35
2016-03-03T12:48:33.582Z,10.42
2016-03-03T12:49:33.632Z,10.33
2016-03-03T12:50:33.542Z,10.35
2016-03-03T12:51:33.528Z,10.31
2016-03-03T12:52:33.500Z,10.31
2016-03-03T12:53:33.503Z,10.17
2016-03-03T12:54:33.473Z,9.98
2016-03-03T12:55:33.445Z,10.09
2016-03-03T12:56:33.417Z,10.13
2016-03-03T12:57:33.404Z,10.12
2016-03-03T12:58:33.375Z,10.22
2016-03-03T12:59:33.425Z,10.22
2016-03-03T13:00:33.334Z,10.28
2016-03-03T13:01:33.321Z,10.37
2016-03-03T13:02:33.308Z,10.4
2016-03-03T13:03:33.279Z,10.57
2016-03-03T13:04:33.298Z,10.59
2016-03-03T13:05:33.238Z,10.54
2016-03-03T13:06:33.210Z,10.6
2016-03-03T13:07:33.977Z,10.54
2016-03-03T13:08:33.168Z,10.56
2016-03-03T13:09:33.155Z,10.38
2016-03-03T13:10:33.127Z,10.4
2016-03-03T13:11:33.113Z,10.41
2016-03-03T13:12:33.101Z,10.35
2016-03-03T13:13:33.103Z,10.19
2016-03-03T13:14:33.074Z,10.19
2016-03-03T13:15:33.030Z,10.02
2016-03-03T13:16:33.001Z,9.87
2016-03-03T13:17:32.989Z,9.89
2016-03-03T13:18:32.960Z,9.82
2016-03-03T13:19:32.948Z,9.74